Погода Бон-Жезус-ду-Итабапоанана неделю

Рио-де-Жанейро, Бразилия

22 - 28 июля
  • 22июля
    Сегодня
    +14°
    +31°
    Ясно и безоблачно
    ВремяПогодаТемператураВлажностьДавлениеВетер, м/сВероятность осадков
    00:00Ясно и безоблачно+15°C96 %754 мм0.9 м/с5 %
    03:00Ясно и безоблачно+14°C97 %754 мм1.1 м/с5 %
    06:00Практически безоблачно+14°C98 %754 мм0.7 м/с5 %
    09:00Ясно и безоблачно+20°C75 %755 мм1.7 м/с5 %
    12:00Ясно и безоблачно+27°C49 %754 мм1.8 м/с5 %
    15:00Ясно и безоблачно+30°C36 %752 мм1.6 м/с5 %
    18:00Ясно и безоблачно+23°C48 %753 мм2.1 м/с5 %
    21:00Ясно и безоблачно+19°C86 %754 мм1.5 м/с5 %
  • 23июля
    Вторник
    +12°
    +29°
    Ясно и безоблачно
    ВремяПогодаТемператураВлажностьДавлениеВетер, м/сВероятность осадков
    00:00Ясно и безоблачно+15°C91 %754 мм1.1 м/с5 %
    03:00Ясно и безоблачно+15°C91 %753 мм0.9 м/с5 %
    06:00Пасмурно, сплошная облачность+14°C95 %754 мм0.8 м/с5 %
    09:00Ясно и безоблачно+21°C74 %756 мм1.3 м/с5 %
    12:00Ясно и безоблачно+26°C48 %755 мм2.1 м/с5 %
    15:00Ясно и безоблачно+29°C44 %754 мм2.4 м/с5 %
    18:00Ясно и безоблачно+21°C53 %754 мм2.3 м/с5 %
    21:00Ясно и безоблачно+19°C85 %756 мм1.7 м/с5 %
  • 24июля
    Среда
    +13°
    +30°
    Практически безоблачно
    ВремяПогодаТемператураВлажностьДавлениеВетер, м/сВероятность осадков
    00:00Ясно и безоблачно+14°C96 %756 мм1.2 м/с5 %
    03:00Небольшая облачность+13°C97 %755 мм1.0 м/с5 %
    06:00Небольшая облачность+12°C99 %756 мм1.2 м/с5 %
    09:00Ясно и безоблачно+19°C71 %757 мм1.1 м/с5 %
    12:00Ясно и безоблачно+27°C47 %756 мм2.1 м/с3 %
    15:00Практически безоблачно+29°C41 %754 мм3.0 м/с5 %
    18:00Ясно и безоблачно+22°C56 %755 мм3.2 м/с5 %
    21:00Ясно и безоблачно+19°C80 %756 мм1.8 м/с5 %
  • 25июля
    Четверг
    +11°
    +31°
    Ясно и безоблачно
    ВремяПогодаТемператураВлажностьДавлениеВетер, м/сВероятность осадков
    00:00Ясно и безоблачно+15°C90 %755 мм1.0 м/с5 %
    03:00Ясно и безоблачно+14°C97 %754 мм1.3 м/с5 %
    06:00Ясно и безоблачно+13°C97 %754 мм1.6 м/с5 %
    09:00Ясно и безоблачно+21°C68 %756 мм1.4 м/с5 %
    12:00Практически безоблачно+28°C45 %754 мм0.8 м/с5 %
    15:00Ясно и безоблачно+31°C35 %751 мм1.3 м/с5 %
    18:00Ясно и безоблачно+24°C46 %752 мм2.3 м/с5 %
    21:00Ясно и безоблачно+19°C84 %752 мм1.4 м/с5 %
  • 26июля
    Пятница
    +14°
    +32°
    Ясно и безоблачно
    ВремяПогодаТемператураВлажностьДавлениеВетер, м/сВероятность осадков
    00:00Ясно и безоблачно+15°C87 %752 мм0.9 м/с5 %
    03:00Ясно и безоблачно+13°C85 %751 мм0.7 м/с5 %
    06:00Ясно и безоблачно+12°C86 %752 мм0.7 м/с5 %
    09:00Ясно и безоблачно+22°C50 %753 мм0.9 м/с5 %
    12:00Ясно и безоблачно+29°C33 %752 мм1.5 м/с5 %
    15:00Ясно и безоблачно+32°C28 %751 мм0.6 м/с5 %
    18:00Небольшая облачность+23°C42 %751 мм2.2 м/с5 %
    21:00Ясно и безоблачно+20°C58 %752 мм1.1 м/с5 %
Мы используем cookies
Соглашаюсь